Timber Lake, Colorado
Current Conditions -  °F | °C
As of 7:53 PM on Friday 28 Nov 2014 (Local Time) from KLHX Reporting Station
Clear Clear  
Wind Chill: 50°   Ceiling: Unl
Heat Index: 50°   Visibility: 10mi
Dew Point: 18°   Wind: 15mph
Humidity: 28%   Direction: 260°W
Pressure: 29.79"   Gusts: NA
Location:  37.8368°N, 103.544°W
Report Text: KLHX 290253Z AUTO 26013KT 10SM CLR 10/M08 A2979 RMK AO2 SLP066 T01001078 58003
Loading
Personal Weather Stations






























Interactive Weather Map New forecast layout! Learn more

10-Day Weather Forecast

Advertisements
Track Severe Weather on mobile